Time;durP1;ratioP1;P1;durP2;ratioP2;P2;SDS_P1;SDS_P2;PMS_P1;PMS_P2;Temp;Humidity;BMP_temperature;BMP_pressure;BME280_temperature;BME280_humidity;BME280_pressure;Samples;Min_cycle;Max_cycle;Signal;HPM_P1;HPM_P2
2022/08/25 00:01:45;;;;;;;17.42;6.50;;;;;;;;;;5077437;28;20274;-47
2022/08/25 00:04:14;;;;;;;20.58;6.97;;;;;;;;;;5077475;28;20223;-48
2022/08/25 00:06:44;;;;;;;18.05;6.90;;;;;;;;;;5078182;28;20204;-47
2022/08/25 00:09:14;;;;;;;15.02;7.45;;;;;;;;;;5077448;28;20209;-47
2022/08/25 00:11:42;;;;;;;17.15;7.22;;;;;;;;;;5077945;28;20211;-46
2022/08/25 00:14:13;;;;;;;19.10;7.32;;;;;;;;;;5077505;28;20203;-47
2022/08/25 00:16:40;;;;;;;15.18;7.13;;;;;;;;;;5077488;28;20219;-46
2022/08/25 00:19:11;;;;;;;18.30;7.22;;;;;;;;;;5077329;28;20199;-47
2022/08/25 00:21:39;;;;;;;14.25;6.85;;;;;;;;;;5076956;28;20196;-47
2022/08/25 00:24:07;;;;;;;13.75;7.30;;;;;;;;;;5077799;28;20234;-48
2022/08/25 00:26:38;;;;;;;15.45;7.10;;;;;;;;;;5077386;28;20204;-47
2022/08/25 00:29:05;;;;;;;20.55;7.22;;;;;;;;;;5059978;28;20274;-50
2022/08/25 00:31:32;;;;;;;15.65;8.05;;;;;;;;;;5077292;28;20204;-47
2022/08/25 00:34:11;;;;;;;23.60;7.68;;;;;;;;;;5077838;28;20211;-47
2022/08/25 00:36:38;;;;;;;14.70;8.00;;;;;;;;;;5077060;28;20624;-46
2022/08/25 00:39:07;;;;;;;15.63;7.90;;;;;;;;;;5077025;28;20590;-48
2022/08/25 00:41:35;;;;;;;22.02;7.55;;;;;;;;;;5077022;28;20203;-47
2022/08/25 00:44:05;;;;;;;17.17;7.68;;;;;;;;;;5076669;28;20223;-47
2022/08/25 00:46:40;;;;;;;27.95;8.32;;;;;;;;;;5076305;28;20203;-48
2022/08/25 00:49:13;;;;;;;19.95;7.38;;;;;;;;;;5077027;28;20211;-47
2022/08/25 00:52:27;;;;;;;15.73;7.78;;;;;;;;;;5076511;28;20231;-47
2022/08/25 00:54:58;;;;;;;13.70;7.28;;;;;;;;;;4980037;28;20274;-46
2022/08/25 00:57:38;;;;;;;17.52;7.50;;;;;;;;;;4995639;28;20209;-47
2022/08/25 01:00:21;;;;;;;18.95;8.68;;;;;;;;;;4979781;28;20297;-47
2022/08/25 01:02:49;;;;;;;16.50;7.97;;;;;;;;;;4995814;28;20190;-47
2022/08/25 01:05:18;;;;;;;15.23;6.95;;;;;;;;;;4995522;28;20209;-46
2022/08/25 01:07:45;;;;;;;23.65;7.53;;;;;;;;;;4995538;28;20717;-47
2022/08/25 01:10:12;;;;;;;18.20;7.90;;;;;;;;;;4979028;28;20205;-47
2022/08/25 01:12:39;;;;;;;19.95;8.27;;;;;;;;;;4995113;28;20206;-47
2022/08/25 01:15:08;;;;;;;16.20;7.97;;;;;;;;;;4995161;28;20657;-48
2022/08/25 01:17:53;;;;;;;18.02;8.80;;;;;;;;;;4995317;28;20330;-50
2022/08/25 01:20:24;;;;;;;22.48;7.93;;;;;;;;;;4995275;28;20209;-46
2022/08/25 01:22:56;;;;;;;14.60;7.97;;;;;;;;;;4994962;28;20189;-48
2022/08/25 01:25:47;;;;;;;14.80;8.07;;;;;;;;;;4995072;28;20638;-47
2022/08/25 01:28:15;;;;;;;20.83;7.82;;;;;;;;;;4979033;28;20206;-47
2022/08/25 01:30:42;;;;;;;19.40;8.27;;;;;;;;;;5044414;28;20264;-49
2022/08/25 01:33:10;;;;;;;21.58;8.07;;;;;;;;;;5075957;28;20594;-50
2022/08/25 01:35:39;;;;;;;23.10;8.07;;;;;;;;;;5075954;28;20264;-47
2022/08/25 01:38:07;;;;;;;15.02;8.00;;;;;;;;;;5075810;28;20203;-49
2022/08/25 01:40:36;;;;;;;21.55;8.18;;;;;;;;;;5075913;28;20218;-49
2022/08/25 01:43:06;;;;;;;20.75;7.88;;;;;;;;;;5075952;28;20286;-47
2022/08/25 01:45:34;;;;;;;16.38;7.82;;;;;;;;;;5075872;28;20203;-48
2022/08/25 01:48:01;;;;;;;22.30;8.45;;;;;;;;;;5075675;28;20210;-49
2022/08/25 01:50:29;;;;;;;16.73;7.97;;;;;;;;;;5075352;28;20234;-47
2022/08/25 01:52:58;;;;;;;14.05;8.18;;;;;;;;;;5075654;28;20258;-50
2022/08/25 01:55:26;;;;;;;17.80;8.60;;;;;;;;;;5074896;28;20302;-47
2022/08/25 01:57:53;;;;;;;16.73;8.50;;;;;;;;;;5075590;28;20214;-49
2022/08/25 02:00:21;;;;;;;18.65;8.52;;;;;;;;;;5075658;28;20217;-46
2022/08/25 02:02:48;;;;;;;18.88;8.40;;;;;;;;;;5075499;28;20206;-47
2022/08/25 02:05:20;;;;;;;17.38;8.07;;;;;;;;;;5075419;28;20548;-47
2022/08/25 02:07:49;;;;;;;14.38;7.78;;;;;;;;;;5075394;28;20200;-47
2022/08/25 02:10:16;;;;;;;18.00;7.60;;;;;;;;;;5075572;28;20619;-47
2022/08/25 02:12:43;;;;;;;13.75;8.32;;;;;;;;;;5075225;28;20203;-48
2022/08/25 02:15:10;;;;;;;19.75;8.55;;;;;;;;;;5075509;28;20203;-48
2022/08/25 02:17:38;;;;;;;18.65;8.02;;;;;;;;;;5074966;28;20624;-48
2022/08/25 02:20:08;;;;;;;18.23;8.43;;;;;;;;;;5075330;28;20496;-47
2022/08/25 02:22:35;;;;;;;16.70;8.13;;;;;;;;;;5075711;28;20227;-51
2022/08/25 02:25:03;;;;;;;16.80;8.20;;;;;;;;;;5074866;28;20223;-52
2022/08/25 02:27:31;;;;;;;13.18;8.32;;;;;;;;;;5075070;28;20207;-47
2022/08/25 02:29:58;;;;;;;18.25;8.38;;;;;;;;;;5074866;28;20213;-46
2022/08/25 02:32:25;;;;;;;14.80;8.27;;;;;;;;;;5074860;28;20203;-49
2022/08/25 02:34:52;;;;;;;18.15;8.38;;;;;;;;;;5075034;28;20545;-48
2022/08/25 02:37:19;;;;;;;19.02;7.38;;;;;;;;;;5075027;28;20219;-46
2022/08/25 02:39:46;;;;;;;13.77;7.50;;;;;;;;;;5074898;28;20195;-50
2022/08/25 02:42:13;;;;;;;14.55;7.03;;;;;;;;;;5074885;28;20204;-47
2022/08/25 02:44:41;;;;;;;30.80;8.20;;;;;;;;;;5074590;28;20234;-50
2022/08/25 02:47:07;;;;;;;14.45;7.90;;;;;;;;;;5075047;28;20210;-48
2022/08/25 02:49:35;;;;;;;14.77;7.82;;;;;;;;;;5074662;28;20206;-47
2022/08/25 02:52:02;;;;;;;11.10;6.80;;;;;;;;;;5074329;28;20231;-47
2022/08/25 02:54:29;;;;;;;22.38;7.38;;;;;;;;;;5074553;28;20272;-47
2022/08/25 02:56:56;;;;;;;18.50;8.05;;;;;;;;;;5074614;28;20203;-48
2022/08/25 02:59:23;;;;;;;16.05;8.93;;;;;;;;;;5074341;28;20203;-48
2022/08/25 03:01:50;;;;;;;19.13;8.65;;;;;;;;;;5074302;28;20261;-48
2022/08/25 03:04:17;;;;;;;22.98;8.30;;;;;;;;;;5074526;28;20223;-51
2022/08/25 03:06:44;;;;;;;14.23;8.20;;;;;;;;;;5076381;28;20238;-47
2022/08/25 03:09:12;;;;;;;17.45;8.32;;;;;;;;;;5078457;28;20289;-47
2022/08/25 03:11:39;;;;;;;18.50;8.45;;;;;;;;;;5078415;28;20207;-49
2022/08/25 03:14:08;;;;;;;16.70;7.88;;;;;;;;;;5078232;28;20241;-49
2022/08/25 03:16:35;;;;;;;16.90;7.90;;;;;;;;;;5078371;28;20547;-48
2022/08/25 03:19:03;;;;;;;14.88;8.45;;;;;;;;;;5078345;28;20203;-49
2022/08/25 03:21:31;;;;;;;16.83;7.90;;;;;;;;;;5077798;28;20643;-47
2022/08/25 03:23:59;;;;;;;18.67;8.35;;;;;;;;;;5077782;28;20237;-48
2022/08/25 03:29:12;;;;;;;15.45;8.23;;;;;;;;;;5077966;28;20513;-47
2022/08/25 03:31:41;;;;;;;15.68;8.30;;;;;;;;;;5078056;28;20199;-49
2022/08/25 03:34:08;;;;;;;14.38;7.97;;;;;;;;;;5077866;28;20302;-48
2022/08/25 03:36:35;;;;;;;14.32;8.60;;;;;;;;;;5078380;28;20253;-47
2022/08/25 03:39:03;;;;;;;14.77;7.05;;;;;;;;;;5077757;28;20219;-46
2022/08/25 03:41:33;;;;;;;14.45;7.68;;;;;;;;;;5060330;28;20203;-48
2022/08/25 03:44:02;;;;;;;16.77;7.97;;;;;;;;;;5077583;28;20211;-49
2022/08/25 03:46:36;;;;;;;18.75;8.50;;;;;;;;;;5077794;28;20285;-47
2022/08/25 03:49:05;;;;;;;16.35;7.68;;;;;;;;;;5077673;28;20536;-49
2022/08/25 03:51:36;;;;;;;16.83;8.00;;;;;;;;;;5077326;28;20352;-48
2022/08/25 03:54:03;;;;;;;15.75;8.93;;;;;;;;;;5077523;28;20709;-47
2022/08/25 03:56:30;;;;;;;14.77;7.95;;;;;;;;;;5077415;28;20229;-47
2022/08/25 03:58:59;;;;;;;13.40;8.25;;;;;;;;;;5077543;28;20215;-47
2022/08/25 04:01:26;;;;;;;21.92;8.18;;;;;;;;;;5073558;28;20229;-50
2022/08/25 04:03:53;;;;;;;13.00;7.88;;;;;;;;;;5060251;28;20251;-52
2022/08/25 04:06:22;;;;;;;14.93;7.70;;;;;;;;;;5056146;28;20196;-48
2022/08/25 04:08:51;;;;;;;17.00;9.25;;;;;;;;;;5061487;28;20207;-47
2022/08/25 04:11:20;;;;;;;16.38;8.02;;;;;;;;;;5050738;28;20220;-53
2022/08/25 04:13:48;;;;;;;19.58;8.48;;;;;;;;;;5065816;28;20702;-49
2022/08/25 04:16:18;;;;;;;15.82;8.32;;;;;;;;;;5057728;28;20592;-49
2022/08/25 04:18:46;;;;;;;13.75;8.35;;;;;;;;;;5061239;28;20216;-48
2022/08/25 04:21:14;;;;;;;22.45;8.73;;;;;;;;;;5071776;28;20574;-49
2022/08/25 04:23:43;;;;;;;14.52;8.52;;;;;;;;;;5072219;28;20211;-52
2022/08/25 04:26:12;;;;;;;17.85;8.57;;;;;;;;;;5054600;28;20293;-48
2022/08/25 04:28:40;;;;;;;19.13;9.68;;;;;;;;;;5056285;28;20219;-48
2022/08/25 04:31:13;;;;;;;13.45;8.10;;;;;;;;;;5056500;28;20680;-48
2022/08/25 04:33:40;;;;;;;16.73;8.32;;;;;;;;;;5054054;28;20216;-49
2022/08/25 04:36:10;;;;;;;13.98;8.50;;;;;;;;;;5055936;28;20232;-47
2022/08/25 04:38:39;;;;;;;16.17;8.52;;;;;;;;;;5056548;28;20230;-50
2022/08/25 04:41:09;;;;;;;13.75;8.50;;;;;;;;;;5055339;28;20235;-49
2022/08/25 04:43:37;;;;;;;15.82;8.75;;;;;;;;;;5056027;28;20274;-47
2022/08/25 04:46:05;;;;;;;26.35;9.13;;;;;;;;;;5055224;28;20243;-47
2022/08/25 04:48:33;;;;;;;22.70;9.30;;;;;;;;;;5056597;28;20578;-47
2022/08/25 04:51:05;;;;;;;18.90;9.73;;;;;;;;;;5055495;28;20261;-47
2022/08/25 04:53:32;;;;;;;20.17;8.77;;;;;;;;;;5055942;28;20192;-49
2022/08/25 04:56:00;;;;;;;16.42;8.52;;;;;;;;;;5056450;28;20207;-49
2022/08/25 04:58:29;;;;;;;18.38;9.70;;;;;;;;;;5056493;28;20200;-48
2022/08/25 05:01:08;;;;;;;21.25;9.52;;;;;;;;;;5056736;28;20214;-48
2022/08/25 05:03:36;;;;;;;13.52;8.80;;;;;;;;;;5057073;28;20188;-47
2022/08/25 05:06:04;;;;;;;16.50;9.15;;;;;;;;;;5056529;28;20234;-48
2022/08/25 05:08:31;;;;;;;16.88;8.35;;;;;;;;;;5056552;28;20204;-47
2022/08/25 05:11:07;;;;;;;17.65;8.25;;;;;;;;;;5038947;28;20231;-47
2022/08/25 05:13:34;;;;;;;18.00;8.15;;;;;;;;;;5056342;28;20195;-52
2022/08/25 05:16:02;;;;;;;11.25;8.25;;;;;;;;;;5056114;28;20211;-49
2022/08/25 05:18:30;;;;;;;27.27;8.60;;;;;;;;;;5056452;28;20227;-48
2022/08/25 05:21:06;;;;;;;16.42;7.90;;;;;;;;;;5056044;28;20283;-49
2022/08/25 05:23:33;;;;;;;17.77;8.07;;;;;;;;;;5039871;28;20204;-48
2022/08/25 05:26:04;;;;;;;22.02;8.77;;;;;;;;;;5055862;28;20228;-48
2022/08/25 05:28:32;;;;;;;16.27;8.40;;;;;;;;;;5055405;28;20219;-46
2022/08/25 05:31:01;;;;;;;15.43;7.65;;;;;;;;;;5056517;28;20204;-49
2022/08/25 05:33:28;;;;;;;13.07;8.35;;;;;;;;;;5055985;28;20200;-46
2022/08/25 05:35:58;;;;;;;20.10;7.65;;;;;;;;;;5056125;28;20208;-48
2022/08/25 05:38:26;;;;;;;18.67;7.88;;;;;;;;;;5055845;28;20234;-48
2022/08/25 05:40:57;;;;;;;11.20;7.72;;;;;;;;;;5055868;28;20200;-46
2022/08/25 05:43:24;;;;;;;13.52;6.50;;;;;;;;;;5056189;28;20193;-45
2022/08/25 05:45:56;;;;;;;11.27;7.18;;;;;;;;;;5055774;28;20258;-46
2022/08/25 05:48:25;;;;;;;16.73;7.05;;;;;;;;;;5055608;28;20211;-45
2022/08/25 05:50:57;;;;;;;10.70;6.60;;;;;;;;;;5055479;28;20207;-45
2022/08/25 05:53:25;;;;;;;16.73;7.40;;;;;;;;;;5055461;28;20271;-45
2022/08/25 05:55:56;;;;;;;12.48;6.95;;;;;;;;;;5055709;28;20220;-46
2022/08/25 05:58:23;;;;;;;17.80;6.55;;;;;;;;;;5055609;28;20242;-46
2022/08/25 06:00:50;;;;;;;13.82;6.93;;;;;;;;;;5055596;28;20200;-45
2022/08/25 06:03:17;;;;;;;13.10;6.32;;;;;;;;;;5055645;28;20200;-46
2022/08/25 06:05:44;;;;;;;18.38;6.72;;;;;;;;;;5055460;28;20220;-46
2022/08/25 06:08:12;;;;;;;13.07;6.07;;;;;;;;;;5055460;28;20200;-45
2022/08/25 06:10:39;;;;;;;13.13;6.07;;;;;;;;;;5055177;28;20204;-45
2022/08/25 06:13:06;;;;;;;10.07;5.90;;;;;;;;;;5055357;28;20204;-45
2022/08/25 06:15:35;;;;;;;21.63;6.47;;;;;;;;;;5055097;28;20636;-44
2022/08/25 06:18:03;;;;;;;18.20;6.38;;;;;;;;;;5055462;28;20208;-46
2022/08/25 06:20:30;;;;;;;13.63;6.45;;;;;;;;;;5055120;28;20220;-45
2022/08/25 06:22:58;;;;;;;11.32;6.28;;;;;;;;;;5055251;28;20257;-45
2022/08/25 06:25:26;;;;;;;13.88;5.82;;;;;;;;;;5054610;28;20227;-45
2022/08/25 06:27:54;;;;;;;15.73;6.20;;;;;;;;;;5054600;28;20199;-46
2022/08/25 06:30:23;;;;;;;15.30;6.05;;;;;;;;;;5054587;28;20624;-46
2022/08/25 06:32:55;;;;;;;21.27;5.60;;;;;;;;;;5054521;28;20208;-45
2022/08/25 06:35:22;;;;;;;13.50;5.50;;;;;;;;;;5054460;28;20660;-45
2022/08/25 06:37:49;;;;;;;12.70;5.65;;;;;;;;;;5054386;28;20219;-46
2022/08/25 06:40:17;;;;;;;18.02;5.78;;;;;;;;;;5054514;28;20942;-49
2022/08/25 06:42:47;;;;;;;18.25;5.30;;;;;;;;;;5054800;28;20204;-45
2022/08/25 06:45:15;;;;;;;11.05;5.10;;;;;;;;;;5058273;28;21049;-47
2022/08/25 06:47:43;;;;;;;11.77;5.13;;;;;;;;;;5061015;28;20212;-48
2022/08/25 06:50:11;;;;;;;14.50;5.63;;;;;;;;;;5054408;28;20208;-51
2022/08/25 06:52:38;;;;;;;9.23;4.88;;;;;;;;;;5054486;28;20606;-48
2022/08/25 06:55:06;;;;;;;13.02;5.50;;;;;;;;;;5054541;28;20200;-53
2022/08/25 06:57:34;;;;;;;15.60;4.95;;;;;;;;;;5054269;28;20208;-52
2022/08/25 07:00:06;;;;;;;8.18;5.00;;;;;;;;;;5054450;28;20269;-52
2022/08/25 07:02:34;;;;;;;15.82;5.43;;;;;;;;;;5054624;28;20196;-53
2022/08/25 07:05:03;;;;;;;11.70;4.43;;;;;;;;;;5054457;28;20223;-50
2022/08/25 07:07:30;;;;;;;11.55;4.72;;;;;;;;;;5054602;28;20358;-52
2022/08/25 07:10:10;;;;;;;15.55;5.22;;;;;;;;;;5054373;28;20204;-52
2022/08/25 07:12:37;;;;;;;14.18;4.88;;;;;;;;;;5054347;28;20211;-53
2022/08/25 07:15:05;;;;;;;10.27;4.60;;;;;;;;;;5054405;28;20208;-52
2022/08/25 07:17:48;;;;;;;12.70;4.50;;;;;;;;;;5054282;28;20188;-50
2022/08/25 07:20:16;;;;;;;8.82;4.40;;;;;;;;;;5054222;28;20203;-51
2022/08/25 07:22:46;;;;;;;12.68;4.60;;;;;;;;;;5054268;28;20287;-54
2022/08/25 07:25:13;;;;;;;18.98;4.78;;;;;;;;;;5053977;28;20232;-50
2022/08/25 07:27:43;;;;;;;10.70;4.78;;;;;;;;;;5054004;28;20696;-50
2022/08/25 07:30:10;;;;;;;9.63;5.05;;;;;;;;;;5053936;28;20199;-53
2022/08/25 07:32:37;;;;;;;19.10;5.13;;;;;;;;;;5054173;28;20204;-54
2022/08/25 07:35:19;;;;;;;14.07;4.35;;;;;;;;;;5054135;28;20200;-55
2022/08/25 07:37:55;;;;;;;14.63;4.53;;;;;;;;;;5054415;28;20226;-52
2022/08/25 07:40:28;;;;;;;9.05;4.43;;;;;;;;;;5054283;28;20192;-54
2022/08/25 07:42:58;;;;;;;15.00;4.15;;;;;;;;;;5054175;28;20530;-49
2022/08/25 07:45:29;;;;;;;13.30;4.72;;;;;;;;;;5053607;28;20232;-53
2022/08/25 07:48:10;;;;;;;12.10;4.80;;;;;;;;;;5036742;28;20192;-54
2022/08/25 07:50:41;;;;;;;11.57;4.50;;;;;;;;;;5054133;28;20242;-51
2022/08/25 07:53:11;;;;;;;10.98;4.43;;;;;;;;;;5035662;28;20189;-52
2022/08/25 07:55:40;;;;;;;14.70;4.15;;;;;;;;;;5037836;28;20196;-52
2022/08/25 07:58:09;;;;;;;9.95;4.43;;;;;;;;;;5036707;28;20185;-51
2022/08/25 08:00:39;;;;;;;11.45;4.55;;;;;;;;;;5036949;28;20208;-54
2022/08/25 08:03:09;;;;;;;8.82;3.92;;;;;;;;;;5037748;28;20293;-53
2022/08/25 08:05:56;;;;;;;17.02;4.10;;;;;;;;;;5037744;28;20221;-51
2022/08/25 08:08:23;;;;;;;10.88;3.83;;;;;;;;;;5037284;28;20219;-53
2022/08/25 08:10:51;;;;;;;8.75;3.92;;;;;;;;;;5036613;28;20296;-54
2022/08/25 08:13:35;;;;;;;8.30;3.88;;;;;;;;;;5037357;28;20614;-51
2022/08/25 08:16:09;;;;;;;10.50;3.72;;;;;;;;;;5037361;28;20189;-54
2022/08/25 08:18:37;;;;;;;10.57;3.95;;;;;;;;;;5036746;28;20200;-54
2022/08/25 08:21:04;;;;;;;14.15;4.18;;;;;;;;;;5037496;28;20197;-54
2022/08/25 08:23:32;;;;;;;8.55;3.92;;;;;;;;;;5003008;28;20224;-54
2022/08/25 08:25:59;;;;;;;11.40;3.63;;;;;;;;;;5035574;28;20228;-54
2022/08/25 08:28:26;;;;;;;9.10;3.40;;;;;;;;;;5035903;28;20224;-55
2022/08/25 08:30:53;;;;;;;12.52;4.00;;;;;;;;;;5036421;28;20215;-53
2022/08/25 08:33:23;;;;;;;14.93;4.22;;;;;;;;;;5036490;28;20204;-53
2022/08/25 08:36:02;;;;;;;13.68;3.70;;;;;;;;;;5036712;28;20307;-53
2022/08/25 08:38:33;;;;;;;12.20;3.53;;;;;;;;;;5036838;28;20193;-50
2022/08/25 08:44:44;;;;;;;13.82;3.58;;;;;;;;;;5017141;28;20259;-53
2022/08/25 08:47:21;;;;;;;8.00;3.00;;;;;;;;;;5018660;28;20728;-54
2022/08/25 08:49:55;;;;;;;13.63;3.35;;;;;;;;;;5035219;28;20224;-54
2022/08/25 08:52:35;;;;;;;5.75;2.78;;;;;;;;;;5046680;28;20318;-51
2022/08/25 08:55:08;;;;;;;12.23;3.28;;;;;;;;;;5053917;28;20234;-51
2022/08/25 08:57:42;;;;;;;9.80;3.22;;;;;;;;;;5036475;28;20239;-55
2022/08/25 09:00:10;;;;;;;6.60;2.83;;;;;;;;;;5035637;28;20227;-55
2022/08/25 09:02:44;;;;;;;78.80;8.13;;;;;;;;;;5053407;28;20227;-47
2022/08/25 09:05:20;;;;;;;12.88;3.20;;;;;;;;;;5053280;28;20236;-53
2022/08/25 09:07:53;;;;;;;15.25;3.42;;;;;;;;;;5037087;28;20247;-51
2022/08/25 09:10:23;;;;;;;12.35;2.75;;;;;;;;;;5054461;28;20223;-49
2022/08/25 09:13:18;;;;;;;8.32;2.28;;;;;;;;;;5036553;28;20307;-48
2022/08/25 09:19:39;;;;;;;10.48;2.80;;;;;;;;;;5054055;28;20318;-50
2022/08/25 09:22:31;;;;;;;8.73;2.22;;;;;;;;;;5054412;28;20232;-50
2022/08/25 09:25:22;;;;;;;12.13;2.90;;;;;;;;;;5036098;28;20219;-49
2022/08/25 09:28:48;;;;;;;15.15;2.50;;;;;;;;;;5036989;28;20231;-47
2022/08/25 09:31:26;;;;;;;13.77;2.40;;;;;;;;;;5037102;28;20628;-49
2022/08/25 09:33:57;;;;;;;9.65;2.83;;;;;;;;;;5037411;28;20239;-46
2022/08/25 09:36:25;;;;;;;9.93;2.47;;;;;;;;;;5037139;28;20224;-47
2022/08/25 09:38:54;;;;;;;20.25;3.17;;;;;;;;;;5053860;28;20698;-50
2022/08/25 09:41:48;;;;;;;5.60;2.30;;;;;;;;;;5053930;28;20220;-50
2022/08/25 09:44:18;;;;;;;10.07;2.67;;;;;;;;;;5036613;28;20229;-45
2022/08/25 09:46:54;;;;;;;12.35;2.75;;;;;;;;;;5054225;28;20305;-50
2022/08/25 09:49:49;;;;;;;8.02;2.63;;;;;;;;;;5027165;28;20251;-49
2022/08/25 09:52:37;;;;;;;11.00;2.33;;;;;;;;;;4998872;28;1114536;-48
2022/08/25 09:55:07;;;;;;;13.02;2.92;;;;;;;;;;5053897;28;20231;-50
2022/08/25 09:57:42;;;;;;;12.23;2.60;;;;;;;;;;5054434;28;20224;-50
2022/08/25 10:00:09;;;;;;;9.32;2.72;;;;;;;;;;5054147;28;20606;-52
2022/08/25 10:02:36;;;;;;;5.70;2.00;;;;;;;;;;5054054;28;20220;-51
2022/08/25 10:05:19;;;;;;;8.85;2.70;;;;;;;;;;5054154;28;20267;-50
2022/08/25 10:07:52;;;;;;;10.80;2.35;;;;;;;;;;5054597;28;20649;-54
2022/08/25 10:10:53;;;;;;;9.73;2.45;;;;;;;;;;5054419;28;20241;-51
2022/08/25 10:13:22;;;;;;;9.07;2.35;;;;;;;;;;4954032;29;20238;-54
2022/08/25 10:16:24;;;;;;;13.40;2.10;;;;;;;;;;4953742;28;20291;-50
2022/08/25 10:19:11;;;;;;;8.32;2.05;;;;;;;;;;4897068;29;20229;-52
2022/08/25 10:21:40;;;;;;;7.47;1.77;;;;;;;;;;4897059;29;20229;-50
2022/08/25 10:24:09;;;;;;;5.43;1.83;;;;;;;;;;4896800;29;20308;-49
2022/08/25 10:26:57;;;;;;;8.68;2.40;;;;;;;;;;4895712;29;20232;-51
2022/08/25 10:30:01;;;;;;;9.30;1.88;;;;;;;;;;4881648;29;20252;-51
2022/08/25 10:32:45;;;;;;;9.57;1.92;;;;;;;;;;4896644;29;20228;-52
2022/08/25 10:35:18;;;;;;;8.65;1.98;;;;;;;;;;4894279;29;20238;-53
2022/08/25 10:38:15;;;;;;;11.82;2.40;;;;;;;;;;4897153;29;20233;-51
2022/08/25 10:41:15;;;;;;;8.98;1.77;;;;;;;;;;4896745;29;20650;-53
2022/08/25 10:44:05;;;;;;;12.02;2.20;;;;;;;;;;4896881;29;20324;-53
2022/08/25 10:46:37;;;;;;;6.85;1.77;;;;;;;;;;4877973;29;20297;-51
2022/08/25 10:49:18;;;;;;;12.60;2.20;;;;;;;;;;4908891;29;20356;-52
2022/08/25 10:51:51;;;;;;;8.65;2.25;;;;;;;;;;4934328;29;20258;-52
2022/08/25 10:54:21;;;;;;;6.18;2.03;;;;;;;;;;4952173;28;20225;-53
2022/08/25 10:57:09;;;;;;;6.22;1.80;;;;;;;;;;5012922;28;20241;-54
2022/08/25 10:59:39;;;;;;;5.78;2.38;;;;;;;;;;5028112;28;20728;-51
2022/08/25 11:02:39;;;;;;;7.57;2.28;;;;;;;;;;5034259;28;20724;-50
2022/08/25 11:05:23;;;;;;;11.43;2.33;;;;;;;;;;5017646;28;20227;-55
2022/08/25 11:07:57;;;;;;;16.02;2.40;;;;;;;;;;4997279;28;20228;-47
2022/08/25 11:10:48;;;;;;;11.38;2.30;;;;;;;;;;5027851;28;20224;-50
2022/08/25 11:13:37;;;;;;;10.10;1.98;;;;;;;;;;5033481;28;20319;-47
2022/08/25 11:16:14;;;;;;;6.90;2.10;;;;;;;;;;5032991;28;20294;-48
2022/08/25 11:19:06;;;;;;;5.63;2.00;;;;;;;;;;5017223;28;20225;-45
2022/08/25 11:21:42;;;;;;;9.48;2.03;;;;;;;;;;4996226;28;20241;-47
2022/08/25 11:24:34;;;;;;;16.27;2.85;;;;;;;;;;5013770;28;20657;-46
2022/08/25 11:27:05;;;;;;;11.70;2.55;;;;;;;;;;4998225;28;20252;-45
2022/08/25 11:29:35;;;;;;;8.32;2.55;;;;;;;;;;5017197;28;20275;-44
2022/08/25 11:32:05;;;;;;;6.32;2.00;;;;;;;;;;5016692;28;20232;-45
2022/08/25 11:34:35;;;;;;;9.13;1.85;;;;;;;;;;5017516;28;20240;-51
2022/08/25 11:37:26;;;;;;;16.50;2.15;;;;;;;;;;5017419;28;20244;-43
2022/08/25 11:40:22;;;;;;;9.50;1.90;;;;;;;;;;5018355;28;20198;-48
2022/08/25 11:43:14;;;;;;;6.78;1.98;;;;;;;;;;5001291;28;20189;-45
2022/08/25 11:45:58;;;;;;;11.57;2.00;;;;;;;;;;5018095;28;20543;-48
2022/08/25 11:48:52;;;;;;;9.98;2.38;;;;;;;;;;5017623;28;20185;-47
2022/08/25 11:51:35;;;;;;;13.68;2.40;;;;;;;;;;4987983;28;20231;-55
2022/08/25 11:54:23;;;;;;;7.90;2.17;;;;;;;;;;5020847;28;20204;-52
2022/08/25 11:57:19;;;;;;;5.95;2.20;;;;;;;;;;5020437;28;20200;-47
2022/08/25 11:59:53;;;;;;;6.28;2.20;;;;;;;;;;5037879;28;20200;-44
2022/08/25 12:02:29;;;;;;;13.38;2.10;;;;;;;;;;5037885;28;20204;-44
2022/08/25 12:04:56;;;;;;;6.68;2.08;;;;;;;;;;5037612;28;20211;-45
2022/08/25 12:07:27;;;;;;;8.13;2.30;;;;;;;;;;5037554;28;20248;-45
2022/08/25 12:10:09;;;;;;;9.27;2.35;;;;;;;;;;5036886;28;20204;-46
2022/08/25 12:12:42;;;;;;;7.65;2.00;;;;;;;;;;5037474;28;20683;-51
2022/08/25 12:15:12;;;;;;;12.90;2.13;;;;;;;;;;5070870;28;20526;-49
2022/08/25 12:17:40;;;;;;;8.82;1.98;;;;;;;;;;5073406;28;20196;-47
2022/08/25 12:20:07;;;;;;;10.15;2.03;;;;;;;;;;5055598;28;20228;-46
2022/08/25 12:22:34;;;;;;;14.18;2.10;;;;;;;;;;5056822;28;20603;-46
2022/08/25 12:25:10;;;;;;;13.07;2.28;;;;;;;;;;5056120;28;20215;-48
2022/08/25 12:27:50;;;;;;;4.85;1.98;;;;;;;;;;5052497;28;20220;-46
2022/08/25 12:30:22;;;;;;;11.18;1.90;;;;;;;;;;5055741;28;20609;-48
2022/08/25 12:33:31;;;;;;;7.65;1.85;;;;;;;;;;5039131;28;20299;-48
2022/08/25 12:36:01;;;;;;;5.03;1.80;;;;;;;;;;5040528;28;20592;-47
2022/08/25 12:38:46;;;;;;;6.53;2.08;;;;;;;;;;5038397;28;20239;-50
2022/08/25 12:41:30;;;;;;;10.18;2.25;;;;;;;;;;5039376;28;20227;-47
2022/08/25 12:44:42;;;;;;;8.50;2.20;;;;;;;;;;5056157;28;20227;-47
2022/08/25 12:47:19;;;;;;;10.27;2.00;;;;;;;;;;5030304;28;20231;-47
2022/08/25 12:49:49;;;;;;;5.78;1.90;;;;;;;;;;5054887;28;20235;-48
2022/08/25 12:52:21;;;;;;;13.93;2.10;;;;;;;;;;5055935;28;20244;-49
2022/08/25 12:54:58;;;;;;;11.43;2.83;;;;;;;;;;5055950;28;20223;-46
2022/08/25 12:57:45;;;;;;;5.63;2.08;;;;;;;;;;5045483;28;20231;-48
2022/08/25 13:00:23;;;;;;;11.07;2.25;;;;;;;;;;5053594;28;20515;-49
2022/08/25 13:03:03;;;;;;;9.63;1.77;;;;;;;;;;5038954;28;20228;-48
2022/08/25 13:05:41;;;;;;;6.68;1.48;;;;;;;;;;5054891;28;20224;-50
2022/08/25 13:08:08;;;;;;;6.97;1.67;;;;;;;;;;5055818;28;20309;-50
2022/08/25 13:10:51;;;;;;;17.75;2.22;;;;;;;;;;5055258;28;20231;-50
2022/08/25 13:13:48;;;;;;;10.73;1.40;;;;;;;;;;5055607;28;20231;-47
2022/08/25 13:16:21;;;;;;;10.82;1.83;;;;;;;;;;5037744;28;20227;-49
2022/08/25 13:18:58;;;;;;;7.70;2.10;;;;;;;;;;5055772;28;20293;-47
2022/08/25 13:21:42;;;;;;;5.90;1.55;;;;;;;;;;5054844;28;20310;-47
2022/08/25 13:24:26;;;;;;;8.00;1.50;;;;;;;;;;5036993;28;20522;-48
2022/08/25 13:26:56;;;;;;;6.88;1.30;;;;;;;;;;5036552;28;20652;-47
2022/08/25 13:29:31;;;;;;;9.48;1.65;;;;;;;;;;5054115;28;20262;-46
2022/08/25 13:32:08;;;;;;;18.90;2.22;;;;;;;;;;5052478;28;20207;-46
2022/08/25 13:34:41;;;;;;;10.35;1.70;;;;;;;;;;5037753;28;20511;-46
2022/08/25 13:37:28;;;;;;;26.08;2.55;;;;;;;;;;5052859;28;20643;-48
2022/08/25 13:40:23;;;;;;;20.98;2.30;;;;;;;;;;5054051;28;20208;-46
2022/08/25 13:43:12;;;;;;;9.40;1.83;;;;;;;;;;5055314;28;20219;-48
2022/08/25 13:45:43;;;;;;;8.70;1.60;;;;;;;;;;5055450;28;20200;-48
2022/08/25 13:48:12;;;;;;;272.80;20.63;;;;;;;;;;5037738;28;20231;-46
2022/08/25 13:50:50;;;;;;;5.78;1.25;;;;;;;;;;5054267;28;20230;-52
2022/08/25 13:53:24;;;;;;;7.47;1.30;;;;;;;;;;5054752;28;20628;-47
2022/08/25 13:55:52;;;;;;;17.60;1.95;;;;;;;;;;5054581;28;20261;-47
2022/08/25 13:58:26;;;;;;;24.35;2.08;;;;;;;;;;5054571;28;20200;-46
2022/08/25 14:01:18;;;;;;;5.57;1.85;;;;;;;;;;5040506;28;20208;-46
2022/08/25 14:04:30;;;;;;;6.75;1.38;;;;;;;;;;5040761;28;20192;-47
2022/08/25 14:07:28;;;;;;;6.15;1.45;;;;;;;;;;5054209;28;20257;-48
2022/08/25 14:10:04;;;;;;;4.22;1.50;;;;;;;;;;4955488;29;20203;-47
2022/08/25 14:12:36;;;;;;;6.55;1.35;;;;;;;;;;4954553;29;20535;-47
2022/08/25 14:15:16;;;;;;;9.32;1.50;;;;;;;;;;4954432;29;20286;-46
2022/08/25 14:18:07;;;;;;;3.90;1.50;;;;;;;;;;4955157;29;20191;-46
2022/08/25 14:20:36;;;;;;;7.68;1.90;;;;;;;;;;4954284;29;20211;-47
2022/08/25 14:23:11;;;;;;;6.65;1.52;;;;;;;;;;4952909;29;20212;-47
2022/08/25 14:25:42;;;;;;;3.88;1.20;;;;;;;;;;4937197;29;20207;-47
2022/08/25 14:28:15;;;;;;;8.90;1.55;;;;;;;;;;4952809;29;20228;-47
2022/08/25 14:30:52;;;;;;;7.95;1.30;;;;;;;;;;4952377;29;20194;-47
2022/08/25 14:33:24;;;;;;;5.65;1.10;;;;;;;;;;4954494;29;20206;-49
2022/08/25 14:35:52;;;;;;;3.90;1.50;;;;;;;;;;4954495;29;20629;-48
2022/08/25 14:38:21;;;;;;;3.65;1.08;;;;;;;;;;4939196;29;20207;-46
2022/08/25 14:40:48;;;;;;;10.18;1.50;;;;;;;;;;4954697;29;20666;-49
2022/08/25 14:43:16;;;;;;;9.20;1.40;;;;;;;;;;4955173;29;20234;-47
2022/08/25 14:45:45;;;;;;;7.15;1.30;;;;;;;;;;4961196;28;20755;-47
2022/08/25 14:48:25;;;;;;;5.07;1.40;;;;;;;;;;5054240;28;20231;-46
2022/08/25 14:50:54;;;;;;;8.32;1.48;;;;;;;;;;5052304;28;20203;-47
2022/08/25 14:53:23;;;;;;;7.22;1.42;;;;;;;;;;5053077;28;20185;-47
2022/08/25 14:55:53;;;;;;;6.70;1.33;;;;;;;;;;5053476;28;20633;-47
2022/08/25 14:58:26;;;;;;;6.63;1.10;;;;;;;;;;5052201;28;20531;-47
2022/08/25 15:01:00;;;;;;;7.07;1.90;;;;;;;;;;5054051;28;20209;-46
2022/08/25 15:03:31;;;;;;;6.55;1.40;;;;;;;;;;5058455;28;20200;-46
2022/08/25 15:05:59;;;;;;;11.55;1.60;;;;;;;;;;5057956;28;20265;-47
2022/08/25 15:11:13;;;;;;;4.53;1.33;;;;;;;;;;5057342;28;20208;-46
2022/08/25 15:13:43;;;;;;;8.55;1.52;;;;;;;;;;5057987;28;20696;-47
2022/08/25 15:16:29;;;;;;;9.57;1.50;;;;;;;;;;5057641;28;20616;-47
2022/08/25 15:19:04;;;;;;;5.72;1.50;;;;;;;;;;5041143;28;20203;-47
2022/08/25 15:21:34;;;;;;;3.05;1.50;;;;;;;;;;5057751;28;20199;-47
2022/08/25 15:24:03;;;;;;;9.40;1.42;;;;;;;;;;5057958;28;20230;-46